createdAt,value
2022-09-03T00:01:53.759Z,0.90
2022-09-03T00:07:02.030Z,0.90
2022-09-03T00:12:10.647Z,0.70
2022-09-03T00:17:16.999Z,1.00
2022-09-03T00:22:22.958Z,0.80
2022-09-03T00:27:28.083Z,0.70
2022-09-03T00:32:39.046Z,0.65
2022-09-03T00:37:41.942Z,0.70
2022-09-03T00:42:49.875Z,0.80
2022-09-03T00:48:07.878Z,0.60
2022-09-03T00:53:14.725Z,0.90
2022-09-03T00:58:29.759Z,0.80
2022-09-03T01:03:39.946Z,0.80
2022-09-03T01:08:53.330Z,0.70
2022-09-03T01:14:02.500Z,0.90
2022-09-03T01:19:13.386Z,0.80
2022-09-03T01:24:49.639Z,0.90
2022-09-03T01:29:57.494Z,0.93
2022-09-03T01:35:04.889Z,0.73
2022-09-03T01:40:14.702Z,0.90
2022-09-03T01:45:35.644Z,0.82
2022-09-03T01:50:45.744Z,0.60
2022-09-03T01:55:59.895Z,1.13
2022-09-03T02:01:06.904Z,0.93
2022-09-03T02:06:10.064Z,0.70
2022-09-03T02:11:13.033Z,0.93
2022-09-03T02:16:21.181Z,0.85
2022-09-03T02:21:25.984Z,0.90
2022-09-03T02:26:28.758Z,0.98
2022-09-03T02:31:32.849Z,0.90
2022-09-03T02:36:38.995Z,0.90
2022-09-03T02:41:41.878Z,0.90
2022-09-03T02:46:49.833Z,0.90
2022-09-03T02:51:52.631Z,0.90
2022-09-03T02:56:55.699Z,1.00
2022-09-03T03:02:01.270Z,1.10
2022-09-03T03:07:04.259Z,0.90
2022-09-03T03:12:07.260Z,0.80
2022-09-03T03:17:11.338Z,1.20
2022-09-03T03:22:14.247Z,0.90
2022-09-03T03:27:17.227Z,0.98
2022-09-03T03:32:21.454Z,1.05
2022-09-03T03:37:24.170Z,0.93
2022-09-03T03:42:26.881Z,1.17
2022-09-03T03:47:32.195Z,1.00
2022-09-03T03:52:35.058Z,1.10
2022-09-03T03:57:37.787Z,1.08
2022-09-03T04:02:41.898Z,1.20
2022-09-03T04:07:45.005Z,1.40
2022-09-03T04:12:47.788Z,1.10
2022-09-03T04:17:52.870Z,1.00
2022-09-03T04:22:55.622Z,1.10
2022-09-03T04:27:58.652Z,1.10
2022-09-03T04:33:03.178Z,1.20
2022-09-03T04:38:05.939Z,1.45
2022-09-03T04:43:08.741Z,1.17
2022-09-03T04:48:13.585Z,1.17
2022-09-03T04:53:16.305Z,0.88
2022-09-03T04:58:19.121Z,0.80
2022-09-03T05:03:23.578Z,1.13
2022-09-03T05:08:26.575Z,1.05
2022-09-03T05:13:29.550Z,1.05
2022-09-03T05:18:35.740Z,1.52
2022-09-03T05:23:39.966Z,1.25
2022-09-03T05:28:44.080Z,1.05
2022-09-03T05:33:49.679Z,1.08
2022-09-03T05:38:54.288Z,1.73
2022-09-03T05:43:59.434Z,1.15
2022-09-03T05:49:05.498Z,1.30
2022-09-03T05:54:09.179Z,1.20
2022-09-03T05:59:13.701Z,1.00
2022-09-03T06:04:17.891Z,1.30
2022-09-03T06:09:23.148Z,1.98
2022-09-03T06:14:26.762Z,1.10
2022-09-03T06:19:30.978Z,1.30
2022-09-03T06:24:33.890Z,1.20
2022-09-03T06:29:39.868Z,1.17
2022-09-03T06:34:44.107Z,1.30
2022-09-03T06:39:46.997Z,1.40
2022-09-03T06:44:51.318Z,1.42
2022-09-03T06:49:55.380Z,1.30
2022-09-03T06:54:58.425Z,1.20
2022-09-03T07:00:02.631Z,1.13
2022-09-03T07:05:07.747Z,1.13
2022-09-03T07:10:12.065Z,1.30
2022-09-03T07:15:15.011Z,2.10
2022-09-03T07:20:20.641Z,1.10
2022-09-03T07:25:23.524Z,0.90
2022-09-03T07:30:26.655Z,1.17
2022-09-03T07:35:30.878Z,1.05
2022-09-03T07:40:34.162Z,1.20
2022-09-03T07:45:38.533Z,1.08
2022-09-03T07:50:42.893Z,0.90
2022-09-03T07:55:45.694Z,1.13
2022-09-03T08:00:49.059Z,0.88
2022-09-03T08:05:53.322Z,1.10
2022-09-03T08:10:56.750Z,1.30
2022-09-03T08:16:01.324Z,1.02
2022-09-03T08:21:07.503Z,1.20
2022-09-03T08:26:10.669Z,0.98
2022-09-03T08:31:16.206Z,0.93
2022-09-03T08:36:22.837Z,0.93
2022-09-03T08:41:30.961Z,0.88
2022-09-03T08:46:42.737Z,1.00
2022-09-03T08:51:49.111Z,1.08
2022-09-03T08:56:52.579Z,0.82
2022-09-03T09:01:58.651Z,1.00
2022-09-03T09:07:08.251Z,1.00
2022-09-03T09:12:17.667Z,1.30
2022-09-03T09:17:32.600Z,1.10
2022-09-03T09:22:39.915Z,0.93
2022-09-03T09:27:51.630Z,1.20
2022-09-03T09:32:56.202Z,1.00
2022-09-03T09:38:00.526Z,1.10
2022-09-03T09:43:12.274Z,0.90
2022-09-03T09:48:21.176Z,1.00
2022-09-03T09:53:28.147Z,0.88
2022-09-03T09:58:33.188Z,1.08
2022-09-03T10:03:36.181Z,0.95
2022-09-03T10:08:41.722Z,0.80
2022-09-03T10:13:48.032Z,1.08
2022-09-03T10:18:56.230Z,0.75
2022-09-03T10:24:07.398Z,0.90
2022-09-03T10:29:10.522Z,0.90
2022-09-03T10:34:18.711Z,0.95
2022-09-03T10:39:24.774Z,0.90
2022-09-03T10:44:43.727Z,0.80
2022-09-03T10:49:52.000Z,0.90
2022-09-03T10:55:14.009Z,1.08
2022-09-03T11:00:18.212Z,0.80
2022-09-03T11:05:26.748Z,0.90
2022-09-03T11:10:32.398Z,1.10
2022-09-03T11:15:39.228Z,0.95
2022-09-03T11:20:43.023Z,1.00
2022-09-03T11:25:51.011Z,0.90
2022-09-03T11:31:07.019Z,0.90
2022-09-03T11:36:12.339Z,1.00
2022-09-03T11:41:26.154Z,1.10
2022-09-03T11:46:31.746Z,0.90
2022-09-03T11:51:37.818Z,1.10
2022-09-03T11:56:43.758Z,1.00
2022-09-03T12:01:53.180Z,0.77
2022-09-03T12:07:04.641Z,0.75
2022-09-03T12:12:15.921Z,0.90
2022-09-03T12:17:28.930Z,0.90
2022-09-03T12:22:32.218Z,0.88
2022-09-03T12:27:36.287Z,0.95
2022-09-03T12:32:39.357Z,0.80
2022-09-03T12:48:44.152Z,0.90
2022-09-03T12:53:47.143Z,0.80
2022-09-03T12:58:56.052Z,1.25
2022-09-03T13:04:04.809Z,0.90
2022-09-03T13:09:09.404Z,0.95
2022-09-03T13:14:14.845Z,1.08
2022-09-03T13:19:23.370Z,0.90
2022-09-03T13:24:54.405Z,0.90
2022-09-03T13:30:05.400Z,0.90
2022-09-03T13:35:11.912Z,1.10
2022-09-03T13:40:23.251Z,0.90
2022-09-03T13:45:32.377Z,0.90
2022-09-03T13:50:42.602Z,0.90
2022-09-03T13:55:48.402Z,0.98
2022-09-03T14:00:56.003Z,1.10
2022-09-03T14:06:05.679Z,0.80
2022-09-03T14:11:20.868Z,1.10
2022-09-03T14:16:32.236Z,0.90
2022-09-03T14:21:37.418Z,1.00
2022-09-03T14:26:51.288Z,0.93
2022-09-03T14:32:16.591Z,0.80
2022-09-03T14:37:35.045Z,1.40
2022-09-03T14:42:54.553Z,1.10
2022-09-03T14:48:09.122Z,0.90
2022-09-03T14:53:22.458Z,1.08
2022-09-03T14:58:37.016Z,0.98
2022-09-03T15:04:17.610Z,1.10
2022-09-03T15:09:29.101Z,0.80
2022-09-03T15:14:37.108Z,0.77
2022-09-03T15:20:07.598Z,0.98
2022-09-03T15:25:20.594Z,1.40
2022-09-03T15:30:23.636Z,0.90
2022-09-03T15:35:40.234Z,0.90
2022-09-03T15:40:51.550Z,0.93
2022-09-03T15:45:58.355Z,0.88
2022-09-03T15:51:11.061Z,1.40
2022-09-03T15:56:19.774Z,1.00
2022-09-03T16:01:30.123Z,0.88
2022-09-03T16:06:40.269Z,3.10
2022-09-03T16:11:53.685Z,1.58
2022-09-03T16:17:01.854Z,1.00
2022-09-03T16:22:12.853Z,1.00
2022-09-03T16:27:18.864Z,0.90
2022-09-03T16:32:28.768Z,0.90
2022-09-03T16:37:39.121Z,1.00
2022-09-03T16:42:46.138Z,1.55
2022-09-03T16:47:58.346Z,0.95
2022-09-03T16:53:09.946Z,0.95
2022-09-03T16:58:18.938Z,1.00
2022-09-03T17:03:45.973Z,0.80
2022-09-03T17:08:58.392Z,0.90
2022-09-03T17:14:20.702Z,0.90
2022-09-03T17:19:28.705Z,1.10
2022-09-03T17:24:38.147Z,1.00
2022-09-03T17:29:53.761Z,1.20
2022-09-03T17:35:05.495Z,1.17
2022-09-03T17:40:20.038Z,0.90
2022-09-03T17:45:34.104Z,0.90
2022-09-03T17:50:46.270Z,0.80
2022-09-03T17:55:55.728Z,0.90
2022-09-03T18:01:04.242Z,0.98
2022-09-03T18:06:10.597Z,0.80
2022-09-03T18:11:16.084Z,1.20
2022-09-03T18:16:24.265Z,1.33
2022-09-03T18:21:47.367Z,1.45
2022-09-03T18:27:17.645Z,1.58
2022-09-03T18:32:38.221Z,1.73
2022-09-03T18:37:59.218Z,2.60
2022-09-03T18:43:28.492Z,2.10
2022-09-03T18:48:53.026Z,2.15
2022-09-03T18:54:21.625Z,2.05
2022-09-03T18:59:57.815Z,2.40
2022-09-03T19:05:26.643Z,1.73
2022-09-03T19:10:54.442Z,2.13
2022-09-03T19:16:21.379Z,2.53
2022-09-03T19:21:47.360Z,1.90
2022-09-03T19:27:47.399Z,1.88
2022-09-03T19:33:04.392Z,1.83
2022-09-03T19:38:32.601Z,1.90
2022-09-03T19:43:58.810Z,1.70
2022-09-03T19:49:28.728Z,1.73
2022-09-03T19:54:50.012Z,1.55
2022-09-03T20:00:11.195Z,2.22
2022-09-03T20:05:39.484Z,2.30
2022-09-03T20:10:43.625Z,1.88
2022-09-03T20:15:53.287Z,2.10
2022-09-03T20:21:06.096Z,1.88
2022-09-03T20:26:17.092Z,2.05
2022-09-03T20:31:25.025Z,1.98
2022-09-03T20:36:35.076Z,2.20
2022-09-03T20:41:46.776Z,1.90
2022-09-03T20:46:58.227Z,2.08
2022-09-03T20:52:07.437Z,2.08
2022-09-03T20:57:24.423Z,2.20
2022-09-03T21:02:37.810Z,2.15
2022-09-03T21:07:51.764Z,2.08
2022-09-03T21:13:00.512Z,2.03
2022-09-03T21:18:08.191Z,1.98
2022-09-03T21:23:19.417Z,1.90
2022-09-03T21:28:25.126Z,2.60
2022-09-03T21:33:30.068Z,2.40
2022-09-03T21:38:35.925Z,2.03
2022-09-03T21:43:43.837Z,2.20
2022-09-03T21:48:52.183Z,2.15
2022-09-03T21:53:59.223Z,2.15
2022-09-03T21:59:09.203Z,2.40
2022-09-03T22:04:12.449Z,2.20
2022-09-03T22:09:21.057Z,1.90
2022-09-03T22:14:24.755Z,1.98
2022-09-03T22:19:28.012Z,2.00
2022-09-03T22:24:39.451Z,2.10
2022-09-03T22:29:49.207Z,2.10
2022-09-03T22:35:02.801Z,1.90
2022-09-03T22:40:13.109Z,2.10
2022-09-03T22:45:34.817Z,2.00
2022-09-03T22:50:43.769Z,2.55
2022-09-03T22:55:53.266Z,2.28
2022-09-03T23:01:00.389Z,2.25
2022-09-03T23:06:07.166Z,2.25
2022-09-03T23:11:26.259Z,2.40
2022-09-03T23:16:37.758Z,2.22
2022-09-03T23:21:42.323Z,1.98
2022-09-03T23:26:48.740Z,2.10
2022-09-03T23:31:52.814Z,2.50
2022-09-03T23:37:32.027Z,3.10
2022-09-03T23:42:42.864Z,2.40
2022-09-03T23:47:53.915Z,2.38
2022-09-03T23:53:08.926Z,2.85
2022-09-03T23:58:21.158Z,2.55
